Time;durP1;ratioP1;P1;durP2;ratioP2;P2;SDS_P1;SDS_P2;PMS_P1;PMS_P2;Temp;Humidity;BMP_temperature;BMP_pressure;BME280_temperature;BME280_humidity;BME280_pressure;Samples;Min_cycle;Max_cycle;Signal;HPM_P1;HPM_P2
2022/07/24 00:01:32;;;;;;;4.68;3.08;;;18.30;99.90;;;;;;4999053;28;20042;-73
2022/07/24 00:03:58;;;;;;;5.10;2.47;;;18.30;99.90;;;;;;4999537;28;20042;-73
2022/07/24 00:06:24;;;;;;;2.80;2.22;;;18.30;99.90;;;;;;5016404;28;20064;-73
2022/07/24 00:08:50;;;;;;;4.03;2.22;;;18.30;99.90;;;;;;5016399;28;20045;-73
2022/07/24 00:11:16;;;;;;;4.60;2.40;;;18.20;99.90;;;;;;5016539;28;20041;-73
2022/07/24 00:13:41;;;;;;;4.35;2.80;;;18.20;99.90;;;;;;5019038;28;20045;-73
2022/07/24 00:16:07;;;;;;;4.93;2.90;;;18.20;99.90;;;;;;5020293;28;20136;-73
2022/07/24 00:18:34;;;;;;;3.92;2.70;;;18.20;99.90;;;;;;5020371;28;20038;-73
2022/07/24 00:20:59;;;;;;;6.97;3.15;;;18.10;99.90;;;;;;5020502;28;20056;-73
2022/07/24 00:23:25;;;;;;;3.53;2.45;;;18.10;99.90;;;;;;5020293;28;20050;-75
2022/07/24 00:25:52;;;;;;;3.28;2.50;;;18.10;99.90;;;;;;5002834;28;20129;-73
2022/07/24 00:28:18;;;;;;;4.20;2.75;;;18.10;99.90;;;;;;5002641;28;20049;-73
2022/07/24 00:30:44;;;;;;;3.85;2.88;;;18.00;99.90;;;;;;5002610;28;20085;-73
2022/07/24 00:33:10;;;;;;;5.72;3.03;;;17.90;99.90;;;;;;5020146;28;20339;-73
2022/07/24 00:35:35;;;;;;;5.53;2.83;;;17.90;99.90;;;;;;5003031;28;20038;-73
2022/07/24 00:38:01;;;;;;;5.35;2.95;;;17.90;99.90;;;;;;5019897;28;20046;-74
2022/07/24 00:40:27;;;;;;;3.20;2.88;;;17.90;99.90;;;;;;5020162;28;20038;-74
2022/07/24 00:42:53;;;;;;;6.47;3.60;;;17.90;99.90;;;;;;5019797;28;20041;-73
2022/07/24 00:45:19;;;;;;;6.32;3.00;;;17.90;99.90;;;;;;5002138;28;20356;-73
2022/07/24 00:47:45;;;;;;;4.20;2.80;;;17.90;99.90;;;;;;5020132;28;20073;-73
2022/07/24 00:50:11;;;;;;;3.80;2.42;;;17.90;99.90;;;;;;5035363;28;20050;-73
2022/07/24 00:52:37;;;;;;;4.35;3.30;;;17.90;99.90;;;;;;5002323;28;20046;-73
2022/07/24 00:55:04;;;;;;;4.13;2.63;;;17.90;99.90;;;;;;4986009;28;20050;-73
2022/07/24 00:57:30;;;;;;;4.60;2.85;;;17.90;99.90;;;;;;5019604;28;20438;-73
2022/07/24 00:59:57;;;;;;;3.28;2.42;;;17.90;99.90;;;;;;5002378;28;20108;-73
2022/07/24 01:02:22;;;;;;;4.05;2.75;;;17.90;99.90;;;;;;5019687;28;20530;-73
2022/07/24 01:04:49;;;;;;;4.45;2.80;;;17.80;99.90;;;;;;5019644;28;20116;-73
2022/07/24 01:07:15;;;;;;;5.40;3.00;;;17.80;99.90;;;;;;5035000;28;20362;-73
2022/07/24 01:09:42;;;;;;;5.75;2.80;;;17.80;99.90;;;;;;5002051;28;20046;-73
2022/07/24 01:12:08;;;;;;;3.38;2.80;;;17.90;99.90;;;;;;5019551;28;20069;-73
2022/07/24 01:14:34;;;;;;;5.47;2.85;;;17.90;99.90;;;;;;5001628;28;20080;-73
2022/07/24 01:17:00;;;;;;;4.07;2.70;;;17.80;99.90;;;;;;5019318;28;20100;-73
2022/07/24 01:19:25;;;;;;;5.00;2.72;;;17.80;99.90;;;;;;5019185;28;20107;-73
2022/07/24 01:21:53;;;;;;;4.97;3.00;;;17.80;99.90;;;;;;5001799;28;20042;-73
2022/07/24 01:24:20;;;;;;;3.13;2.60;;;17.80;99.90;;;;;;5017785;28;20049;-73
2022/07/24 01:26:46;;;;;;;4.28;2.75;;;17.70;99.90;;;;;;5019007;28;20056;-73
2022/07/24 01:29:13;;;;;;;4.28;2.60;;;17.70;99.90;;;;;;5002167;28;20077;-73
2022/07/24 01:31:38;;;;;;;3.58;2.50;;;17.60;99.90;;;;;;5018966;28;20089;-73
2022/07/24 01:34:04;;;;;;;3.70;2.72;;;17.70;99.90;;;;;;5001799;28;20135;-73
2022/07/24 01:36:30;;;;;;;5.93;2.70;;;17.70;99.90;;;;;;5001478;28;20053;-73
2022/07/24 01:38:56;;;;;;;4.25;3.08;;;17.50;99.90;;;;;;5019204;28;20046;-73
2022/07/24 01:41:22;;;;;;;4.00;2.67;;;17.50;99.90;;;;;;5001292;28;20046;-73
2022/07/24 01:43:47;;;;;;;4.82;3.00;;;17.50;99.90;;;;;;5000979;28;20037;-74
2022/07/24 01:46:13;;;;;;;3.72;2.45;;;17.60;99.90;;;;;;5001631;28;20117;-73
2022/07/24 01:48:42;;;;;;;4.07;2.65;;;17.60;99.90;;;;;;5018685;28;20093;-73
2022/07/24 01:51:08;;;;;;;3.00;2.55;;;17.60;99.90;;;;;;5001231;28;20053;-73
2022/07/24 01:53:34;;;;;;;3.05;2.42;;;17.60;99.90;;;;;;5018733;28;20171;-73
2022/07/24 01:56:00;;;;;;;3.65;2.53;;;17.60;99.90;;;;;;5001339;28;20132;-73
2022/07/24 01:58:25;;;;;;;3.83;2.35;;;17.50;99.90;;;;;;5018479;28;20073;-73
2022/07/24 02:00:51;;;;;;;3.28;2.40;;;17.50;99.90;;;;;;5018710;28;20080;-73
2022/07/24 02:03:18;;;;;;;6.00;2.88;;;17.50;99.90;;;;;;5018448;28;20112;-73
2022/07/24 02:05:43;;;;;;;3.42;2.25;;;17.60;99.90;;;;;;5018371;28;20096;-73
2022/07/24 02:08:09;;;;;;;3.00;2.35;;;17.50;99.90;;;;;;5000906;28;20037;-73
2022/07/24 02:10:35;;;;;;;3.08;2.45;;;17.60;99.90;;;;;;5018364;28;20034;-73
2022/07/24 02:13:01;;;;;;;4.18;2.50;;;17.60;99.90;;;;;;5018167;28;20084;-73
2022/07/24 02:15:27;;;;;;;4.70;2.92;;;17.60;99.90;;;;;;5017877;28;20136;-73
2022/07/24 02:17:56;;;;;;;4.70;2.50;;;17.60;99.90;;;;;;5018138;28;20042;-73
2022/07/24 02:20:22;;;;;;;4.03;2.78;;;17.50;99.90;;;;;;5000672;28;20096;-73
2022/07/24 02:22:47;;;;;;;5.30;3.03;;;17.60;99.90;;;;;;5000738;28;20038;-73
2022/07/24 02:25:14;;;;;;;5.47;3.00;;;17.50;99.90;;;;;;5000951;28;20041;-73
2022/07/24 02:27:40;;;;;;;7.38;2.67;;;17.50;99.90;;;;;;5018070;28;20056;-73
2022/07/24 02:30:10;;;;;;;4.10;3.10;;;17.50;99.90;;;;;;5017798;28;20129;-73
2022/07/24 02:32:35;;;;;;;3.78;2.53;;;17.50;99.90;;;;;;5000795;28;20053;-73
2022/07/24 02:35:01;;;;;;;4.30;3.03;;;17.50;99.90;;;;;;5017398;28;20331;-73
2022/07/24 02:37:27;;;;;;;6.28;3.20;;;17.50;99.90;;;;;;5017746;28;20391;-73
2022/07/24 02:39:52;;;;;;;6.60;2.70;;;17.50;99.90;;;;;;4984456;28;20034;-73
2022/07/24 02:42:18;;;;;;;4.22;2.50;;;17.50;99.90;;;;;;5017677;28;20037;-73
2022/07/24 02:44:43;;;;;;;4.45;2.70;;;17.50;99.90;;;;;;4999889;28;20084;-73
2022/07/24 02:47:09;;;;;;;4.78;2.63;;;17.50;99.90;;;;;;5017846;28;20054;-73
2022/07/24 02:49:35;;;;;;;3.97;2.70;;;17.40;99.90;;;;;;5017583;28;20037;-73
2022/07/24 02:52:02;;;;;;;6.18;2.90;;;17.50;99.90;;;;;;5033295;28;20377;-73
2022/07/24 02:54:28;;;;;;;4.90;2.63;;;17.60;99.90;;;;;;5000014;28;20045;-73
2022/07/24 02:56:54;;;;;;;4.63;3.00;;;17.70;99.90;;;;;;5000296;28;20045;-73
2022/07/24 02:59:19;;;;;;;6.05;3.05;;;17.60;99.90;;;;;;5000002;28;20045;-73
2022/07/24 03:01:45;;;;;;;4.57;2.50;;;17.60;99.90;;;;;;5000053;28;20041;-73
2022/07/24 03:04:11;;;;;;;5.20;3.40;;;17.70;99.90;;;;;;5032868;28;20044;-73
2022/07/24 03:06:37;;;;;;;3.60;2.85;;;17.70;99.90;;;;;;5017369;28;20042;-73
2022/07/24 03:09:03;;;;;;;5.90;3.35;;;17.80;99.90;;;;;;4999960;28;20069;-73
2022/07/24 03:11:29;;;;;;;7.05;3.10;;;17.70;99.90;;;;;;5017334;28;20033;-73
2022/07/24 03:13:54;;;;;;;4.45;3.10;;;17.80;99.90;;;;;;5016911;28;20041;-73
2022/07/24 03:16:20;;;;;;;4.85;3.10;;;17.80;99.90;;;;;;4999633;28;20077;-73
2022/07/24 03:18:48;;;;;;;5.68;2.83;;;17.70;99.90;;;;;;5016955;28;20077;-73
2022/07/24 03:21:17;;;;;;;5.32;3.05;;;17.70;99.90;;;;;;5017033;28;20049;-73
2022/07/24 03:23:43;;;;;;;4.72;3.25;;;17.60;99.90;;;;;;5017099;28;20038;-73
2022/07/24 03:26:09;;;;;;;5.95;3.45;;;17.70;99.90;;;;;;5016992;28;20381;-73
2022/07/24 03:28:35;;;;;;;5.13;3.35;;;17.70;99.90;;;;;;5017079;28;20042;-73
2022/07/24 03:31:00;;;;;;;5.28;3.20;;;17.60;99.90;;;;;;5016698;28;20049;-73
2022/07/24 03:33:29;;;;;;;5.82;3.42;;;17.70;99.90;;;;;;5016736;28;20383;-73
2022/07/24 03:35:56;;;;;;;4.90;4.03;;;17.70;99.90;;;;;;4999475;28;20442;-73
2022/07/24 03:38:22;;;;;;;5.72;4.00;;;17.70;99.90;;;;;;5016735;28;20492;-73
2022/07/24 03:40:47;;;;;;;4.47;3.58;;;17.70;99.90;;;;;;4999690;28;20041;-73
2022/07/24 03:43:13;;;;;;;5.78;3.95;;;17.70;99.90;;;;;;5016735;28;20038;-73
2022/07/24 03:45:39;;;;;;;6.15;3.95;;;17.70;99.90;;;;;;5016311;28;20037;-73
2022/07/24 03:48:05;;;;;;;7.07;4.25;;;17.80;99.90;;;;;;5015738;28;20042;-73
2022/07/24 03:50:30;;;;;;;7.68;4.38;;;17.80;99.90;;;;;;5032364;28;20042;-73
2022/07/24 03:52:56;;;;;;;4.75;3.83;;;17.90;99.90;;;;;;4999490;28;20485;-73
2022/07/24 03:55:22;;;;;;;4.55;3.70;;;17.80;99.90;;;;;;5016750;28;20331;-73
2022/07/24 03:57:48;;;;;;;5.57;4.13;;;17.80;99.90;;;;;;5016466;28;20169;-73
2022/07/24 04:00:14;;;;;;;5.40;4.32;;;17.90;99.90;;;;;;5016431;28;20038;-74
2022/07/24 04:02:40;;;;;;;5.00;4.28;;;17.90;99.90;;;;;;5032208;28;20037;-73
2022/07/24 04:05:08;;;;;;;8.82;4.25;;;18.00;99.90;;;;;;5016620;28;20053;-73
2022/07/24 04:07:37;;;;;;;4.82;3.90;;;18.00;99.90;;;;;;4999382;28;20379;-73
2022/07/24 04:10:05;;;;;;;9.95;5.28;;;18.00;99.90;;;;;;4999016;28;20041;-73
2022/07/24 04:12:31;;;;;;;5.57;4.22;;;18.00;99.90;;;;;;5016375;28;20046;-73
2022/07/24 04:14:56;;;;;;;9.27;4.82;;;18.10;99.90;;;;;;5015897;28;20088;-73
2022/07/24 04:17:22;;;;;;;5.18;4.00;;;18.10;99.90;;;;;;5016255;28;20042;-73
2022/07/24 04:19:48;;;;;;;5.07;4.30;;;18.20;99.90;;;;;;4983285;28;20069;-73
2022/07/24 04:22:13;;;;;;;5.30;4.25;;;18.10;99.90;;;;;;5016509;28;20082;-73
2022/07/24 04:24:39;;;;;;;5.32;4.25;;;18.10;99.90;;;;;;4999469;28;20323;-73
2022/07/24 04:27:05;;;;;;;6.80;4.10;;;18.10;99.90;;;;;;5016274;28;20042;-73
2022/07/24 04:29:30;;;;;;;6.85;4.43;;;18.00;99.90;;;;;;5016347;28;20441;-73
2022/07/24 04:31:56;;;;;;;6.53;4.28;;;18.10;99.90;;;;;;5016136;28;20049;-73
2022/07/24 04:34:22;;;;;;;6.53;3.63;;;18.10;99.90;;;;;;4998742;28;20064;-73
2022/07/24 04:36:47;;;;;;;7.07;4.43;;;18.20;99.90;;;;;;5016377;28;20060;-73
2022/07/24 04:39:13;;;;;;;6.40;4.35;;;18.10;99.90;;;;;;5016191;28;20434;-73
2022/07/24 04:41:40;;;;;;;5.90;4.22;;;18.20;99.90;;;;;;5016300;28;20044;-73
2022/07/24 04:44:05;;;;;;;8.07;5.32;;;18.30;99.90;;;;;;5015653;28;20374;-73
2022/07/24 04:46:31;;;;;;;6.32;4.45;;;18.20;99.90;;;;;;5016383;28;20100;-73
2022/07/24 04:48:57;;;;;;;6.57;4.68;;;18.30;99.90;;;;;;5031853;28;20096;-73
2022/07/24 04:51:23;;;;;;;7.75;4.28;;;18.30;99.90;;;;;;5016245;28;20121;-73
2022/07/24 04:53:48;;;;;;;6.40;4.35;;;18.30;99.90;;;;;;4998693;28;20049;-73
2022/07/24 04:56:14;;;;;;;7.13;4.88;;;18.40;99.90;;;;;;5016126;28;20077;-73
2022/07/24 04:58:40;;;;;;;6.20;4.63;;;18.40;99.90;;;;;;5016974;28;20065;-73
2022/07/24 05:01:06;;;;;;;7.20;4.47;;;18.40;99.90;;;;;;5019500;28;20034;-73
2022/07/24 05:03:32;;;;;;;7.72;5.18;;;18.40;99.90;;;;;;5019749;28;20087;-73
2022/07/24 05:05:57;;;;;;;10.45;4.90;;;18.40;99.90;;;;;;5019583;28;20411;-73
2022/07/24 05:08:23;;;;;;;8.65;5.70;;;18.60;99.90;;;;;;5002397;28;20320;-73
2022/07/24 05:10:49;;;;;;;6.95;4.90;;;18.60;99.90;;;;;;5019400;28;20049;-73
2022/07/24 05:13:15;;;;;;;6.20;4.72;;;18.60;99.90;;;;;;5002136;28;20041;-73
2022/07/24 05:15:40;;;;;;;6.28;4.70;;;18.70;99.90;;;;;;5018844;28;20069;-73
2022/07/24 05:18:06;;;;;;;5.90;4.95;;;18.70;99.90;;;;;;5019439;28;20331;-73
2022/07/24 05:20:32;;;;;;;5.55;4.38;;;18.70;99.90;;;;;;5019567;28;20038;-73
2022/07/24 05:22:58;;;;;;;5.97;4.45;;;18.90;99.90;;;;;;5019274;28;20429;-73
2022/07/24 05:25:24;;;;;;;7.70;4.70;;;19.00;99.90;;;;;;5019371;28;20375;-73
2022/07/24 05:27:49;;;;;;;7.40;4.53;;;19.10;99.90;;;;;;5018974;28;20053;-74
2022/07/24 05:30:15;;;;;;;6.93;5.00;;;19.10;99.90;;;;;;5019065;28;20061;-73
2022/07/24 05:32:41;;;;;;;6.45;4.95;;;19.20;99.90;;;;;;5019028;28;20046;-73
2022/07/24 05:35:07;;;;;;;8.20;4.38;;;19.40;99.90;;;;;;5018996;28;20046;-74
2022/07/24 05:37:32;;;;;;;6.53;4.93;;;19.50;99.90;;;;;;5018957;28;20038;-73
2022/07/24 05:39:58;;;;;;;8.35;5.38;;;19.50;99.90;;;;;;5001508;28;20034;-73
2022/07/24 05:42:24;;;;;;;10.35;5.18;;;19.60;99.90;;;;;;5001676;28;20049;-73
2022/07/24 05:44:49;;;;;;;7.85;5.28;;;19.50;99.90;;;;;;5018226;28;20049;-73
2022/07/24 05:47:15;;;;;;;7.40;5.68;;;19.50;99.90;;;;;;5018939;28;20091;-73
2022/07/24 05:49:41;;;;;;;10.10;5.68;;;19.50;99.90;;;;;;5018728;28;20116;-73
2022/07/24 05:52:06;;;;;;;9.77;6.28;;;19.50;99.90;;;;;;5018756;28;20038;-73
2022/07/24 05:54:32;;;;;;;9.68;6.15;;;19.40;99.90;;;;;;5001554;28;20085;-73
2022/07/24 05:56:58;;;;;;;9.48;6.53;;;19.50;99.90;;;;;;5018340;28;20331;-73
2022/07/24 05:59:23;;;;;;;8.35;6.57;;;19.40;99.90;;;;;;5018486;28;20045;-73
2022/07/24 06:01:49;;;;;;;8.90;6.05;;;19.60;99.90;;;;;;5018606;28;20095;-73
2022/07/24 06:04:15;;;;;;;9.43;5.85;;;19.70;99.90;;;;;;5018653;28;20099;-73
2022/07/24 06:06:40;;;;;;;8.23;6.07;;;19.80;99.90;;;;;;5018497;28;20033;-73
2022/07/24 06:09:06;;;;;;;7.82;5.72;;;19.90;99.90;;;;;;5001371;28;20411;-73
2022/07/24 06:11:32;;;;;;;8.60;6.38;;;19.90;99.90;;;;;;5017485;28;20427;-73
2022/07/24 06:13:57;;;;;;;13.30;6.57;;;20.20;99.90;;;;;;5018451;28;20088;-74
2022/07/24 06:16:23;;;;;;;9.38;6.57;;;20.40;99.90;;;;;;5000490;28;20108;-73
2022/07/24 06:18:49;;;;;;;11.40;7.03;;;20.50;99.90;;;;;;5018214;28;20120;-73
2022/07/24 06:21:14;;;;;;;9.38;6.60;;;20.50;99.90;;;;;;4984517;28;20186;-73
2022/07/24 06:23:40;;;;;;;8.80;6.65;;;20.60;99.90;;;;;;5018193;28;20109;-73
2022/07/24 06:26:06;;;;;;;12.30;7.45;;;20.70;99.90;;;;;;5000603;28;20049;-73
2022/07/24 06:28:31;;;;;;;10.55;7.35;;;20.70;99.90;;;;;;5000715;28;20050;-73
2022/07/24 06:30:57;;;;;;;11.23;6.70;;;20.70;99.90;;;;;;5017893;28;20062;-73
2022/07/24 06:33:23;;;;;;;11.15;6.47;;;20.80;99.90;;;;;;5033342;28;20335;-73
2022/07/24 06:35:48;;;;;;;12.57;7.53;;;21.20;99.90;;;;;;5018078;28;20403;-73
2022/07/24 06:38:16;;;;;;;9.93;6.85;;;21.20;99.90;;;;;;5017755;28;20045;-73
2022/07/24 06:40:42;;;;;;;12.02;8.88;;;21.50;99.90;;;;;;5017793;28;20068;-73
2022/07/24 06:43:07;;;;;;;13.85;8.38;;;21.50;99.90;;;;;;5017750;28;20117;-74
2022/07/24 06:45:33;;;;;;;13.88;8.18;;;21.60;99.90;;;;;;5017216;28;20538;-74
2022/07/24 06:48:03;;;;;;;13.02;9.10;;;21.70;99.90;;;;;;5000428;28;20478;-74
2022/07/24 06:50:29;;;;;;;15.75;9.43;;;21.70;99.90;;;;;;5000164;28;20125;-73
2022/07/24 06:52:54;;;;;;;14.10;9.65;;;21.70;99.90;;;;;;5000379;28;20049;-74
2022/07/24 06:55:21;;;;;;;12.77;9.32;;;21.70;99.90;;;;;;5017410;28;20041;-73
2022/07/24 06:57:46;;;;;;;17.85;9.90;;;21.80;99.90;;;;;;5017543;28;20453;-74
2022/07/24 07:00:12;;;;;;;15.57;9.88;;;22.00;99.90;;;;;;5017309;28;20073;-74
2022/07/24 07:02:39;;;;;;;11.75;9.88;;;22.10;99.90;;;;;;5000384;28;20108;-74
2022/07/24 07:05:08;;;;;;;15.32;10.10;;;22.30;99.90;;;;;;5000054;28;20104;-73
2022/07/24 07:07:36;;;;;;;16.10;10.45;;;22.40;99.90;;;;;;5017507;28;20320;-74
2022/07/24 07:10:01;;;;;;;15.10;10.27;;;22.50;99.90;;;;;;5017096;28;20099;-75
2022/07/24 07:12:27;;;;;;;17.23;10.10;;;22.40;99.90;;;;;;5017370;28;20049;-74
2022/07/24 07:14:53;;;;;;;11.88;9.43;;;22.40;99.90;;;;;;5016604;28;20470;-74
2022/07/24 07:17:19;;;;;;;12.73;10.25;;;22.60;99.90;;;;;;4999698;28;20086;-74
2022/07/24 07:19:44;;;;;;;15.25;10.18;;;22.50;99.90;;;;;;5000055;28;20042;-74
2022/07/24 07:22:10;;;;;;;17.73;10.68;;;22.60;99.90;;;;;;5016132;28;20342;-74
2022/07/24 07:24:37;;;;;;;15.65;11.30;;;22.60;99.90;;;;;;5017117;28;20042;-74
2022/07/24 07:27:03;;;;;;;16.17;10.18;;;22.40;99.90;;;;;;5016849;28;20045;-74
2022/07/24 07:29:28;;;;;;;15.05;9.52;;;22.50;99.90;;;;;;5016731;28;20331;-74
2022/07/24 07:31:55;;;;;;;15.40;10.80;;;22.60;99.90;;;;;;4999751;28;20119;-74
2022/07/24 07:34:20;;;;;;;14.50;9.88;;;22.80;99.90;;;;;;5017172;28;20135;-73
2022/07/24 07:36:46;;;;;;;11.55;8.90;;;23.00;99.90;;;;;;4999408;28;20097;-74
2022/07/24 07:39:12;;;;;;;15.23;9.18;;;23.20;99.90;;;;;;4999349;28;20045;-74
2022/07/24 07:41:38;;;;;;;13.43;8.35;;;23.30;99.90;;;;;;5016840;28;20041;-74
2022/07/24 07:44:04;;;;;;;13.13;8.48;;;23.50;99.90;;;;;;5017052;28;20034;-73
2022/07/24 07:46:30;;;;;;;12.23;7.97;;;23.80;99.90;;;;;;4999163;28;20056;-73
2022/07/24 07:48:56;;;;;;;10.38;8.23;;;24.00;99.90;;;;;;5016835;28;20410;-73
2022/07/24 07:51:22;;;;;;;12.52;7.75;;;24.10;99.90;;;;;;5016656;28;20042;-73
2022/07/24 07:53:48;;;;;;;13.15;7.55;;;23.70;99.90;;;;;;5016515;28;20049;-73
2022/07/24 07:56:14;;;;;;;8.50;6.30;;;23.60;99.90;;;;;;4967175;28;20104;-74
2022/07/24 07:58:40;;;;;;;10.63;6.93;;;23.60;99.90;;;;;;5016834;28;20041;-74
2022/07/24 08:01:06;;;;;;;13.93;7.07;;;23.70;99.90;;;;;;4999224;28;20117;-74
2022/07/24 08:03:31;;;;;;;8.82;5.22;;;23.70;99.90;;;;;;5016403;28;20042;-74
2022/07/24 08:05:57;;;;;;;8.38;5.50;;;23.60;99.90;;;;;;5016602;28;20045;-73
2022/07/24 08:08:23;;;;;;;9.55;5.32;;;23.70;99.90;;;;;;5016471;28;20061;-74
2022/07/24 08:10:48;;;;;;;5.88;4.68;;;23.90;99.90;;;;;;5016379;28;20045;-74
2022/07/24 08:13:14;;;;;;;8.48;5.20;;;24.00;99.90;;;;;;5016611;28;20046;-74
2022/07/24 08:15:41;;;;;;;6.25;4.68;;;24.20;99.90;;;;;;5031294;28;20177;-74
2022/07/24 08:18:07;;;;;;;5.82;4.18;;;24.40;99.90;;;;;;5016477;28;20038;-74
2022/07/24 08:20:33;;;;;;;4.55;3.97;;;24.40;99.90;;;;;;5016479;28;20328;-74
2022/07/24 08:22:59;;;;;;;7.55;3.80;;;24.40;99.90;;;;;;5016407;28;20335;-74
2022/07/24 08:25:26;;;;;;;4.72;3.53;;;24.40;99.90;;;;;;5031613;28;20057;-74
2022/07/24 08:27:51;;;;;;;8.32;3.10;;;24.60;99.90;;;;;;4999825;28;20331;-73
2022/07/24 08:30:17;;;;;;;5.57;2.80;;;24.60;99.90;;;;;;4995643;28;20065;-74
2022/07/24 08:32:43;;;;;;;5.10;3.10;;;24.50;99.90;;;;;;4996872;28;20054;-73
2022/07/24 08:35:10;;;;;;;7.18;3.38;;;24.70;99.90;;;;;;4999229;28;20054;-74
2022/07/24 08:37:40;;;;;;;3.78;2.72;;;24.80;99.90;;;;;;5000528;28;20089;-74
2022/07/24 08:40:07;;;;;;;6.35;3.20;;;24.80;99.90;;;;;;5000646;28;20042;-74
2022/07/24 08:42:34;;;;;;;7.22;3.58;;;25.10;99.90;;;;;;5000498;28;20050;-73
2022/07/24 08:45:00;;;;;;;3.42;2.95;;;25.10;99.90;;;;;;4999179;28;20327;-73
2022/07/24 08:47:27;;;;;;;5.03;2.75;;;25.00;99.90;;;;;;5000514;28;20039;-74
2022/07/24 08:49:54;;;;;;;3.10;2.55;;;25.10;99.90;;;;;;5000297;28;20045;-74
2022/07/24 08:52:21;;;;;;;3.78;2.90;;;25.00;99.90;;;;;;5000072;28;20460;-74
2022/07/24 08:54:47;;;;;;;3.75;2.92;;;24.90;99.90;;;;;;4998957;28;20042;-74
2022/07/24 08:57:13;;;;;;;5.93;3.00;;;24.80;99.90;;;;;;5000320;28;20093;-74
2022/07/24 08:59:39;;;;;;;3.40;2.70;;;24.90;99.90;;;;;;5000048;28;20045;-74
2022/07/24 09:02:04;;;;;;;3.83;2.83;;;25.00;99.90;;;;;;4999265;28;20046;-74
2022/07/24 09:04:37;;;;;;;4.65;2.85;;;25.00;99.90;;;;;;5000008;28;20374;-74
2022/07/24 09:07:05;;;;;;;3.88;3.00;;;25.20;99.90;;;;;;4999937;28;20053;-74
2022/07/24 09:09:32;;;;;;;5.68;3.17;;;25.30;99.90;;;;;;4999644;28;20469;-74
2022/07/24 09:12:15;;;;;;;4.07;3.08;;;25.40;99.90;;;;;;5000180;28;20052;-74
2022/07/24 09:14:43;;;;;;;9.55;3.15;;;25.50;99.90;;;;;;4999581;28;20045;-74
2022/07/24 09:17:14;;;;;;;5.25;3.00;;;25.60;99.90;;;;;;4999723;28;20038;-74
2022/07/24 09:19:49;;;;;;;4.57;2.72;;;25.50;99.90;;;;;;4999693;28;20126;-75
2022/07/24 09:22:25;;;;;;;5.25;2.78;;;25.60;99.90;;;;;;4999774;28;20034;-74
2022/07/24 09:25:17;;;;;;;4.93;3.45;;;25.60;99.90;;;;;;4998614;28;20042;-74
2022/07/24 09:27:52;;;;;;;4.10;2.50;;;25.50;99.90;;;;;;4999384;28;20046;-74
2022/07/24 09:30:41;;;;;;;6.22;2.70;;;25.70;99.90;;;;;;5006634;28;20064;-74
2022/07/24 09:33:13;;;;;;;5.68;2.85;;;26.00;99.90;;;;;;5019354;28;20121;-74
2022/07/24 09:35:41;;;;;;;6.78;3.22;;;25.90;99.90;;;;;;5001895;28;20222;-74
2022/07/24 09:38:09;;;;;;;5.82;3.15;;;25.90;99.90;;;;;;5019097;28;20041;-75
2022/07/24 09:40:37;;;;;;;3.83;2.97;;;26.00;99.90;;;;;;5018981;28;20037;-74
2022/07/24 09:43:13;;;;;;;5.22;2.80;;;26.30;99.90;;;;;;5019154;28;20038;-74
2022/07/24 09:46:00;;;;;;;6.88;2.72;;;26.50;99.90;;;;;;5017274;28;20351;-74
2022/07/24 09:48:36;;;;;;;6.32;2.90;;;26.50;99.90;;;;;;5018900;28;20048;-74
2022/07/24 09:51:09;;;;;;;6.60;2.80;;;26.60;99.90;;;;;;5019009;28;20046;-74
2022/07/24 09:53:35;;;;;;;6.63;2.97;;;26.70;99.90;;;;;;5018689;28;20423;-74
2022/07/24 09:56:28;;;;;;;6.18;2.80;;;26.70;99.90;;;;;;5018680;28;20112;-74
2022/07/24 09:58:56;;;;;;;5.20;2.70;;;26.90;99.90;;;;;;4997938;28;20061;-74
2022/07/24 10:01:24;;;;;;;5.75;2.70;;;27.00;99.90;;;;;;5018539;28;20103;-74
2022/07/24 10:03:52;;;;;;;3.45;2.70;;;27.10;99.90;;;;;;5018732;28;20108;-74
2022/07/24 10:06:25;;;;;;;4.93;3.00;;;27.40;99.90;;;;;;5018492;28;20041;-74
2022/07/24 10:08:52;;;;;;;6.22;2.65;;;27.50;99.90;;;;;;5018591;28;20038;-74
2022/07/24 10:11:18;;;;;;;4.28;2.55;;;27.40;99.90;;;;;;5018132;28;20042;-75
2022/07/24 10:13:45;;;;;;;3.80;2.40;;;27.60;99.90;;;;;;5018438;28;20045;-75
2022/07/24 10:16:14;;;;;;;4.70;2.50;;;27.90;99.90;;;;;;5017799;28;20083;-75
2022/07/24 10:18:50;;;;;;;3.95;2.35;;;27.90;99.90;;;;;;5018352;28;20041;-74
2022/07/24 10:21:25;;;;;;;3.30;2.60;;;28.10;99.90;;;;;;5018336;28;20112;-74
2022/07/24 10:23:56;;;;;;;4.03;2.20;;;28.30;99.90;;;;;;5018036;28;20489;-75
2022/07/24 10:26:42;;;;;;;4.05;2.60;;;28.30;99.90;;;;;;5018175;28;20132;-74
2022/07/24 10:29:18;;;;;;;2.88;1.95;;;28.20;99.90;;;;;;5017991;28;20104;-74
2022/07/24 10:31:52;;;;;;;5.43;2.22;;;28.00;99.90;;;;;;5000430;28;20430;-74
2022/07/24 10:34:26;;;;;;;5.00;2.45;;;28.00;99.90;;;;;;5018015;28;20038;-74
2022/07/24 10:37:20;;;;;;;4.10;2.40;;;27.80;99.90;;;;;;5017772;28;20046;-74
2022/07/24 10:39:57;;;;;;;3.40;2.28;;;27.40;99.90;;;;;;5005229;28;20054;-74
2022/07/24 10:42:23;;;;;;;5.55;2.53;;;27.50;99.90;;;;;;5000444;28;20423;-74
2022/07/24 10:45:17;;;;;;;5.43;2.05;;;27.10;99.90;;;;;;5017438;28;20199;-74
2022/07/24 10:47:44;;;;;;;3.47;2.50;;;27.10;99.90;;;;;;5017799;28;20335;-74
2022/07/24 10:50:11;;;;;;;3.10;2.28;;;27.30;99.90;;;;;;5017667;28;20034;-74
2022/07/24 10:52:37;;;;;;;3.80;2.28;;;27.20;99.90;;;;;;5017818;28;20129;-74
2022/07/24 10:55:26;;;;;;;4.50;2.30;;;27.10;99.90;;;;;;4983925;28;20074;-74
2022/07/24 10:58:10;;;;;;;3.30;2.50;;;27.40;99.90;;;;;;4999983;28;20034;-74
2022/07/24 11:00:41;;;;;;;2.75;2.10;;;27.60;99.90;;;;;;5017524;28;20049;-74
2022/07/24 11:03:28;;;;;;;4.03;2.42;;;27.90;99.90;;;;;;5017644;28;20045;-74
2022/07/24 11:06:38;;;;;;;3.13;2.10;;;28.10;99.90;;;;;;4999615;28;20451;-75
2022/07/24 11:09:03;;;;;;;3.30;2.13;;;28.60;99.90;;;;;;5017432;28;20038;-74
2022/07/24 11:11:29;;;;;;;3.97;1.90;;;28.70;99.90;;;;;;5000214;28;20191;-74
2022/07/24 11:14:01;;;;;;;6.05;2.40;;;28.50;99.90;;;;;;5017164;28;20038;-74
2022/07/24 11:16:32;;;;;;;6.72;2.35;;;28.20;99.90;;;;;;4999352;28;20049;-75
2022/07/24 11:19:01;;;;;;;2.20;1.90;;;28.20;99.90;;;;;;5017276;28;20171;-76
2022/07/24 11:21:41;;;;;;;3.97;2.40;;;28.00;99.90;;;;;;5000027;28;20041;-74
2022/07/24 11:24:27;;;;;;;3.90;2.03;;;28.50;99.90;;;;;;5017181;28;20037;-74
2022/07/24 11:27:17;;;;;;;3.67;2.50;;;28.90;99.90;;;;;;5016913;28;20522;-74
2022/07/24 11:29:43;;;;;;;7.15;2.28;;;29.00;99.70;;;;;;4999542;28;20046;-74
2022/07/24 11:32:14;;;;;;;4.55;2.10;;;28.80;99.70;;;;;;5016851;28;20042;-74
2022/07/24 11:34:44;;;;;;;3.00;2.17;;;28.80;99.70;;;;;;5017035;28;20328;-74
2022/07/24 11:37:10;;;;;;;3.47;1.83;;;29.30;99.90;;;;;;4999354;28;20458;-74
2022/07/24 11:39:39;;;;;;;7.30;2.08;;;29.40;99.90;;;;;;4999348;28;20050;-74
2022/07/24 11:42:16;;;;;;;3.95;2.10;;;29.30;99.70;;;;;;5017030;28;20385;-74
2022/07/24 11:44:43;;;;;;;2.97;2.05;;;29.40;99.70;;;;;;5016333;28;20603;-74
2022/07/24 11:47:13;;;;;;;3.97;2.10;;;29.50;99.30;;;;;;5016892;28;20042;-75
2022/07/24 11:49:55;;;;;;;7.78;2.35;;;29.80;99.60;;;;;;5016934;28;20045;-74
2022/07/24 11:52:25;;;;;;;5.72;2.17;;;29.60;99.20;;;;;;5016781;28;20065;-74
2022/07/24 11:54:53;;;;;;;3.40;2.20;;;29.60;99.40;;;;;;5032354;28;20347;-74
2022/07/24 11:57:23;;;;;;;4.32;2.28;;;29.80;99.90;;;;;;5016511;28;20454;-74
2022/07/24 11:59:50;;;;;;;3.30;2.20;;;29.90;99.70;;;;;;5016734;28;20092;-74
2022/07/24 12:02:17;;;;;;;3.25;2.33;;;30.10;99.30;;;;;;4982822;28;20042;-74
2022/07/24 12:04:44;;;;;;;3.58;2.10;;;30.10;99.70;;;;;;5016648;28;20121;-74
2022/07/24 12:07:17;;;;;;;3.58;2.10;;;30.30;99.70;;;;;;5016443;28;20054;-74
2022/07/24 12:09:57;;;;;;;3.33;2.35;;;30.40;99.80;;;;;;5019515;28;20034;-74
2022/07/24 12:12:30;;;;;;;3.05;2.22;;;30.30;98.60;;;;;;5036545;28;20046;-74
2022/07/24 12:15:04;;;;;;;3.00;2.55;;;29.70;98.60;;;;;;5020296;28;20144;-74
2022/07/24 12:17:31;;;;;;;4.95;2.60;;;29.70;99.00;;;;;;4986940;28;20053;-74
2022/07/24 12:19:59;;;;;;;4.93;2.38;;;30.00;98.90;;;;;;5020346;28;20034;-74
2022/07/24 12:22:26;;;;;;;6.55;2.17;;;29.70;98.80;;;;;;5020527;28;20053;-74
2022/07/24 12:24:54;;;;;;;6.72;2.20;;;29.90;99.10;;;;;;5020334;28;20120;-74
2022/07/24 12:27:43;;;;;;;3.10;2.28;;;30.40;99.70;;;;;;5020221;28;20400;-74
2022/07/24 12:30:26;;;;;;;4.78;2.22;;;30.60;99.00;;;;;;5002920;28;20081;-74
2022/07/24 12:32:54;;;;;;;3.53;2.50;;;31.20;99.30;;;;;;5019425;28;20048;-74
2022/07/24 12:35:20;;;;;;;5.53;2.20;;;31.00;98.70;;;;;;5020094;28;20431;-74
2022/07/24 12:37:45;;;;;;;4.82;2.20;;;30.60;98.80;;;;;;5020010;28;20046;-74
2022/07/24 12:40:30;;;;;;;4.05;2.60;;;30.60;98.80;;;;;;4986469;28;20034;-74
2022/07/24 12:42:58;;;;;;;5.40;2.30;;;30.00;98.60;;;;;;5020217;28;20030;-74
2022/07/24 12:45:24;;;;;;;4.40;2.65;;;29.90;99.10;;;;;;5019482;28;20038;-74
2022/07/24 12:48:05;;;;;;;4.55;2.03;;;30.20;98.30;;;;;;5019927;28;20042;-73
2022/07/24 12:50:31;;;;;;;4.32;2.13;;;29.90;98.30;;;;;;5020067;28;20041;-74